createdAt,value
2019-05-03T00:01:22.737Z,22.89
2019-05-03T00:02:43.784Z,22.91
2019-05-03T00:03:47.118Z,22.95
2019-05-03T00:04:52.221Z,22.96
2019-05-03T00:05:56.540Z,22.96
2019-05-03T00:06:59.296Z,22.95
2019-05-03T00:08:03.090Z,22.94
2019-05-03T00:09:09.006Z,22.94
2019-05-03T00:10:12.911Z,22.92
2019-05-03T00:11:16.048Z,22.98
2019-05-03T00:12:22.152Z,22.98
2019-05-03T00:13:24.995Z,22.96
2019-05-03T00:14:27.406Z,22.95
2019-05-03T00:15:48.738Z,23.01
2019-05-03T00:16:52.241Z,23.02
2019-05-03T00:17:54.671Z,23.03
2019-05-03T00:18:57.585Z,23.07
2019-05-03T00:20:02.202Z,23.11
2019-05-03T00:21:06.815Z,23.10
2019-05-03T00:22:09.739Z,23.11
2019-05-03T00:23:12.560Z,23.11
2019-05-03T00:24:15.042Z,23.10
2019-05-03T00:25:18.938Z,23.10
2019-05-03T00:26:22.559Z,23.08
2019-05-03T00:27:25.114Z,23.06
2019-05-03T00:28:27.615Z,23.04
2019-05-03T00:29:30.002Z,23.05
2019-05-03T00:30:32.116Z,23.07
2019-05-03T00:31:34.682Z,23.08
2019-05-03T00:32:37.438Z,23.08
2019-05-03T00:33:43.678Z,23.10
2019-05-03T00:34:52.333Z,23.09
2019-05-03T00:36:02.411Z,23.10
2019-05-03T00:37:12.640Z,23.12
2019-05-03T00:38:15.774Z,23.16
2019-05-03T00:39:22.522Z,23.14
2019-05-03T00:40:28.482Z,23.14
2019-05-03T00:41:32.012Z,23.22
2019-05-03T00:42:35.077Z,23.18
2019-05-03T00:43:37.581Z,23.20
2019-05-03T00:44:39.856Z,23.26
2019-05-03T00:45:42.305Z,23.22
2019-05-03T00:46:44.845Z,23.20
2019-05-03T00:47:47.132Z,23.26
2019-05-03T00:48:49.135Z,23.23
2019-05-03T00:49:51.980Z,23.27
2019-05-03T00:50:54.530Z,23.26
2019-05-03T00:51:56.472Z,23.26
2019-05-03T00:52:58.909Z,23.22
2019-05-03T00:54:02.094Z,23.18
2019-05-03T00:55:15.766Z,23.18
2019-05-03T00:56:12.138Z,23.16
2019-05-03T00:57:14.370Z,23.19
2019-05-03T00:58:16.580Z,23.13
2019-05-03T00:59:19.126Z,23.12
2019-05-03T01:00:21.981Z,23.11
2019-05-03T01:01:24.514Z,23.09
2019-05-03T01:02:27.349Z,23.12
2019-05-03T01:03:29.906Z,23.10
2019-05-03T01:04:32.706Z,23.07
2019-05-03T01:05:35.014Z,23.11
2019-05-03T01:06:37.067Z,23.11
2019-05-03T01:07:39.859Z,23.10
2019-05-03T01:08:42.252Z,23.14
2019-05-03T01:09:44.000Z,23.09
2019-05-03T01:10:46.770Z,23.11
2019-05-03T01:11:49.069Z,23.08
2019-05-03T01:12:52.286Z,23.07
2019-05-03T01:13:55.169Z,23.06
2019-05-03T01:14:58.802Z,23.05
2019-05-03T01:16:03.251Z,23.13
2019-05-03T01:17:05.624Z,23.02
2019-05-03T01:18:12.237Z,22.95
2019-05-03T01:19:13.906Z,22.92
2019-05-03T01:20:16.520Z,22.91
2019-05-03T01:21:18.897Z,22.90
2019-05-03T01:22:22.439Z,22.93
2019-05-03T01:23:24.958Z,22.91
2019-05-03T01:24:27.518Z,22.93
2019-05-03T01:25:34.634Z,22.95
2019-05-03T01:26:35.803Z,22.98
2019-05-03T01:27:38.452Z,22.97
2019-05-03T01:28:42.599Z,22.96
2019-05-03T01:29:45.453Z,23.00
2019-05-03T01:30:47.769Z,23.01
2019-05-03T01:31:50.056Z,22.99
2019-05-03T01:32:52.507Z,22.99
2019-05-03T01:33:55.001Z,23.03
2019-05-03T01:34:57.678Z,23.01
2019-05-03T01:36:00.115Z,22.98
2019-05-03T01:37:02.571Z,22.98
2019-05-03T01:38:05.297Z,22.97
2019-05-03T01:39:10.392Z,22.98
2019-05-03T01:40:12.704Z,22.95
2019-05-03T01:41:15.662Z,22.94
2019-05-03T01:42:17.353Z,22.93
2019-05-03T01:43:22.236Z,22.90
2019-05-03T01:44:24.840Z,22.88
2019-05-03T01:45:27.619Z,22.86
2019-05-03T01:46:31.598Z,22.85
2019-05-03T01:47:52.653Z,22.87
2019-05-03T01:49:09.386Z,22.84
2019-05-03T01:50:17.527Z,22.82
2019-05-03T01:51:41.960Z,22.85
2019-05-03T01:52:46.168Z,22.80
2019-05-03T01:53:49.529Z,22.81
2019-05-03T01:54:52.229Z,22.78
2019-05-03T01:55:56.772Z,22.74
2019-05-03T01:56:59.330Z,22.72
2019-05-03T01:58:01.903Z,22.70
2019-05-03T01:59:04.582Z,22.70
2019-05-03T02:00:11.976Z,22.70
2019-05-03T02:01:27.784Z,22.71
2019-05-03T02:02:35.025Z,22.70
2019-05-03T02:03:56.440Z,22.73
2019-05-03T02:05:06.774Z,22.76
2019-05-03T02:06:08.956Z,22.75
2019-05-03T02:07:11.786Z,22.75
2019-05-03T02:08:14.162Z,22.79
2019-05-03T02:09:16.885Z,22.87
2019-05-03T02:10:19.853Z,22.84
2019-05-03T02:11:22.682Z,22.85
2019-05-03T02:12:25.855Z,22.88
2019-05-03T02:13:28.335Z,22.85
2019-05-03T02:14:31.762Z,22.83
2019-05-03T02:15:34.574Z,22.87
2019-05-03T02:16:37.154Z,22.85
2019-05-03T02:17:39.363Z,22.85
2019-05-03T02:18:42.422Z,22.89
2019-05-03T02:19:44.796Z,22.86
2019-05-03T02:20:46.993Z,22.88
2019-05-03T02:21:49.872Z,22.87
2019-05-03T02:22:52.432Z,22.93
2019-05-03T02:23:55.118Z,22.88
2019-05-03T02:24:57.051Z,22.86
2019-05-03T02:25:59.738Z,22.87
2019-05-03T02:27:02.280Z,22.87
2019-05-03T02:28:04.959Z,22.88
2019-05-03T02:29:07.457Z,22.88
2019-05-03T02:30:13.678Z,22.84
2019-05-03T02:31:14.182Z,22.85
2019-05-03T02:32:16.694Z,22.81
2019-05-03T02:33:19.674Z,22.77
2019-05-03T02:34:24.064Z,22.76
2019-05-03T02:35:26.742Z,22.75
2019-05-03T02:36:28.574Z,22.77
2019-05-03T02:37:33.000Z,22.79
2019-05-03T02:38:36.424Z,22.78
2019-05-03T02:39:39.161Z,22.75
2019-05-03T02:40:42.868Z,22.75
2019-05-03T02:41:49.517Z,22.80
2019-05-03T02:43:10.045Z,22.78
2019-05-03T02:44:15.635Z,22.78
2019-05-03T02:45:22.068Z,22.85
2019-05-03T02:46:25.669Z,22.85
2019-05-03T02:47:37.294Z,22.82
2019-05-03T02:48:48.757Z,22.88
2019-05-03T02:49:53.230Z,22.94
2019-05-03T02:50:56.227Z,22.99
2019-05-03T02:51:58.254Z,23.03
2019-05-03T02:53:00.625Z,23.06
2019-05-03T02:54:05.588Z,23.04
2019-05-03T02:55:10.751Z,23.11
2019-05-03T02:56:21.620Z,23.16
2019-05-03T02:57:17.478Z,23.21
2019-05-03T02:58:19.526Z,23.26
2019-05-03T02:59:21.855Z,23.21
2019-05-03T03:00:56.221Z,23.18
2019-05-03T03:01:59.579Z,23.24
2019-05-03T03:03:02.322Z,23.23
2019-05-03T03:04:05.407Z,23.23
2019-05-03T03:05:09.251Z,23.17
2019-05-03T03:06:15.697Z,23.12
2019-05-03T03:07:18.060Z,23.06
2019-05-03T03:08:22.006Z,23.05
2019-05-03T03:09:26.129Z,23.03
2019-05-03T03:10:29.078Z,23.04
2019-05-03T03:11:37.099Z,23.01
2019-05-03T03:12:46.212Z,23.05
2019-05-03T03:13:49.482Z,23.09
2019-05-03T03:14:55.150Z,23.14
2019-05-03T03:16:02.551Z,23.10
2019-05-03T03:17:08.167Z,23.09
2019-05-03T03:18:15.737Z,23.07
2019-05-03T03:19:21.819Z,23.06
2019-05-03T03:20:26.119Z,23.11
2019-05-03T03:21:35.819Z,23.10
2019-05-03T03:22:41.593Z,23.09
2019-05-03T03:23:51.172Z,23.11
2019-05-03T03:24:57.426Z,23.07
2019-05-03T03:26:02.719Z,23.00
2019-05-03T03:27:07.166Z,23.00
2019-05-03T03:28:12.848Z,22.96
2019-05-03T03:29:16.954Z,22.91
2019-05-03T03:30:39.037Z,22.94
2019-05-03T03:32:08.946Z,22.93
2019-05-03T03:33:17.373Z,22.95
2019-05-03T03:34:27.875Z,22.93
2019-05-03T03:35:31.125Z,22.88
2019-05-03T03:36:54.473Z,22.93
2019-05-03T03:37:46.017Z,22.89
2019-05-03T03:38:48.028Z,22.99
2019-05-03T03:39:50.641Z,23.04
2019-05-03T03:40:58.331Z,23.09
2019-05-03T03:41:59.442Z,23.11
2019-05-03T03:43:05.383Z,23.19
2019-05-03T03:44:08.385Z,23.24
2019-05-03T03:45:11.505Z,23.26
2019-05-03T03:46:15.791Z,23.28
2019-05-03T03:47:19.956Z,23.29
2019-05-03T03:48:26.549Z,23.29
2019-05-03T03:49:30.713Z,23.29
2019-05-03T03:50:35.625Z,23.34
2019-05-03T03:51:38.810Z,23.27
2019-05-03T03:52:45.173Z,23.26
2019-05-03T03:53:51.841Z,23.28
2019-05-03T03:54:58.029Z,23.30
2019-05-03T03:56:02.399Z,23.31
2019-05-03T03:57:08.097Z,23.32
2019-05-03T03:58:10.603Z,23.34
2019-05-03T03:59:15.373Z,23.36
2019-05-03T04:00:20.140Z,23.40
2019-05-03T04:01:22.733Z,23.42
2019-05-03T04:02:26.504Z,23.46
2019-05-03T04:03:29.333Z,23.49
2019-05-03T04:04:32.027Z,23.53
2019-05-03T04:05:35.808Z,23.57
2019-05-03T04:06:41.528Z,23.57
2019-05-03T04:07:46.350Z,23.60
2019-05-03T04:08:49.454Z,23.62
2019-05-03T04:09:51.563Z,23.62
2019-05-03T04:10:55.864Z,23.59
2019-05-03T04:11:59.603Z,23.62
2019-05-03T04:13:05.390Z,23.60
2019-05-03T04:14:10.181Z,23.55
2019-05-03T04:15:36.658Z,23.44
2019-05-03T04:16:45.294Z,23.37
2019-05-03T04:17:52.879Z,23.38
2019-05-03T04:18:57.243Z,23.30
2019-05-03T04:20:00.529Z,23.26
2019-05-03T04:21:05.546Z,23.20
2019-05-03T04:22:08.235Z,23.19
2019-05-03T04:23:11.084Z,23.15
2019-05-03T04:24:12.999Z,23.07
2019-05-03T04:25:15.339Z,23.06
2019-05-03T04:26:18.641Z,23.05
2019-05-03T04:27:24.425Z,23.03
2019-05-03T04:28:26.049Z,23.00
2019-05-03T04:29:28.868Z,22.99
2019-05-03T04:30:30.587Z,22.96
2019-05-03T04:31:36.782Z,22.95
2019-05-03T04:32:38.730Z,22.91
2019-05-03T04:33:41.258Z,22.94
2019-05-03T04:34:45.384Z,22.93
2019-05-03T04:35:49.574Z,22.92
2019-05-03T04:36:52.324Z,22.91
2019-05-03T04:37:55.852Z,22.89
2019-05-03T04:38:58.496Z,22.89
2019-05-03T04:40:00.252Z,22.89
2019-05-03T04:41:05.940Z,22.89
2019-05-03T04:42:07.347Z,22.91
2019-05-03T04:43:09.618Z,22.90
2019-05-03T04:44:11.996Z,22.94
2019-05-03T04:45:16.580Z,22.92
2019-05-03T04:46:20.871Z,22.92
2019-05-03T04:47:23.131Z,22.92
2019-05-03T04:48:26.637Z,22.94
2019-05-03T04:49:28.876Z,22.98
2019-05-03T04:50:31.172Z,22.95
2019-05-03T04:51:35.076Z,22.93
2019-05-03T04:52:37.874Z,22.94
2019-05-03T04:53:45.316Z,22.95
2019-05-03T04:54:48.272Z,22.95
2019-05-03T04:55:50.953Z,22.93
2019-05-03T04:56:55.896Z,22.88
2019-05-03T04:57:57.090Z,22.87
2019-05-03T04:58:59.477Z,22.82
2019-05-03T05:00:10.840Z,22.82
2019-05-03T05:01:10.590Z,22.80
2019-05-03T05:02:15.670Z,22.82
2019-05-03T05:03:16.944Z,22.81
2019-05-03T05:04:19.346Z,22.78
2019-05-03T05:05:21.719Z,22.78
2019-05-03T05:06:26.637Z,22.84
2019-05-03T05:07:28.969Z,22.84
2019-05-03T05:08:31.833Z,22.88
2019-05-03T05:09:34.892Z,22.85
2019-05-03T05:10:37.621Z,22.81
2019-05-03T05:11:40.066Z,22.78
2019-05-03T05:12:42.679Z,22.82
2019-05-03T05:13:45.733Z,22.83
2019-05-03T05:14:48.564Z,22.95
2019-05-03T05:15:50.382Z,22.83
2019-05-03T05:16:55.457Z,22.84
2019-05-03T05:18:08.825Z,22.92
2019-05-03T05:19:15.638Z,22.92
2019-05-03T05:20:24.703Z,22.83
2019-05-03T05:21:28.827Z,22.86
2019-05-03T05:22:34.938Z,22.89
2019-05-03T05:23:39.513Z,22.87
2019-05-03T05:24:41.492Z,22.75
2019-05-03T05:25:55.086Z,22.80
2019-05-03T05:27:02.327Z,22.77
2019-05-03T05:28:06.710Z,22.73
2019-05-03T05:29:10.791Z,22.73
2019-05-03T05:30:14.965Z,22.69
2019-05-03T05:31:17.555Z,22.69
2019-05-03T05:32:20.201Z,22.69
2019-05-03T05:33:25.020Z,22.68
2019-05-03T05:34:27.553Z,22.66
2019-05-03T05:35:29.875Z,22.59
2019-05-03T05:36:32.167Z,22.62
2019-05-03T05:37:35.218Z,22.56
2019-05-03T05:38:37.896Z,22.58
2019-05-03T05:39:39.920Z,22.57
2019-05-03T05:40:42.210Z,22.51
2019-05-03T05:41:45.726Z,22.60
2019-05-03T05:42:48.778Z,22.59
2019-05-03T05:43:51.091Z,22.55
2019-05-03T05:44:55.536Z,22.50
2019-05-03T05:45:58.854Z,22.53
2019-05-03T05:47:20.824Z,22.47
2019-05-03T05:48:29.580Z,22.42
2019-05-03T05:49:49.710Z,22.48
2019-05-03T05:50:52.376Z,22.52
2019-05-03T05:51:54.708Z,22.50
2019-05-03T05:52:57.550Z,22.49
2019-05-03T05:54:00.102Z,22.27
2019-05-03T05:55:16.446Z,22.35
2019-05-03T05:56:21.034Z,22.42
2019-05-03T05:57:44.944Z,22.31
2019-05-03T05:58:49.807Z,22.35
2019-05-03T05:59:57.506Z,22.41
2019-05-03T06:01:09.913Z,22.55
2019-05-03T06:02:12.254Z,22.59
2019-05-03T06:03:14.981Z,22.48
2019-05-03T06:04:17.726Z,22.51
2019-05-03T06:05:20.488Z,22.56
2019-05-03T06:06:24.657Z,22.63
2019-05-03T06:07:44.333Z,22.53
2019-05-03T06:08:48.956Z,22.56
2019-05-03T06:10:05.389Z,22.64
2019-05-03T06:11:26.651Z,22.49
2019-05-03T06:12:35.277Z,22.67
2019-05-03T06:13:48.272Z,22.51
2019-05-03T06:14:54.345Z,22.67
2019-05-03T06:16:05.908Z,22.64
2019-05-03T06:17:26.667Z,22.63
2019-05-03T06:18:35.356Z,22.54
2019-05-03T06:19:39.899Z,22.57
2019-05-03T06:20:59.500Z,22.47
2019-05-03T06:22:05.118Z,22.49
2019-05-03T06:23:09.403Z,22.39
2019-05-03T06:24:14.804Z,22.55
2019-05-03T06:25:18.839Z,22.57
2019-05-03T06:26:39.968Z,22.53
2019-05-03T06:27:42.664Z,22.49
2019-05-03T06:28:45.583Z,22.39
2019-05-03T06:29:49.447Z,22.39
2019-05-03T06:30:58.697Z,22.32
2019-05-03T06:32:19.665Z,22.32
2019-05-03T06:33:24.348Z,22.25
2019-05-03T06:34:27.136Z,22.24
2019-05-03T06:35:29.928Z,22.28
2019-05-03T06:36:32.863Z,22.14
2019-05-03T06:37:39.700Z,22.01
2019-05-03T06:38:42.358Z,21.97
2019-05-03T06:39:45.595Z,21.93
2019-05-03T06:40:48.505Z,21.78
2019-05-03T06:41:50.938Z,21.67
2019-05-03T06:42:55.651Z,21.67
2019-05-03T06:43:56.992Z,21.59
2019-05-03T06:45:08.216Z,21.59
2019-05-03T06:46:05.769Z,21.53
2019-05-03T06:47:10.466Z,21.48
2019-05-03T06:48:17.160Z,21.48
2019-05-03T06:49:17.673Z,21.47
2019-05-03T06:50:25.208Z,21.51
2019-05-03T06:51:24.881Z,21.42
2019-05-03T06:52:29.290Z,21.51
2019-05-03T06:53:34.533Z,21.51
2019-05-03T06:54:37.854Z,21.57
2019-05-03T06:55:45.562Z,21.69
2019-05-03T06:56:47.325Z,21.76
2019-05-03T06:57:50.220Z,21.70
2019-05-03T06:58:54.704Z,21.75
2019-05-03T07:00:05.371Z,21.75
2019-05-03T07:01:14.883Z,21.73
2019-05-03T07:02:19.574Z,21.70
2019-05-03T07:03:29.738Z,21.67
2019-05-03T07:04:34.782Z,21.68
2019-05-03T07:05:48.816Z,21.63
2019-05-03T07:07:05.838Z,21.72
2019-05-03T07:08:11.090Z,21.79
2019-05-03T07:09:31.006Z,21.84
2019-05-03T07:10:35.613Z,21.85
2019-05-03T07:11:38.531Z,21.86
2019-05-03T07:13:01.385Z,21.99
2019-05-03T07:14:05.262Z,21.94
2019-05-03T07:15:08.519Z,22.06
2019-05-03T07:16:11.467Z,22.05
2019-05-03T07:17:14.608Z,21.88
2019-05-03T07:18:16.877Z,21.88
2019-05-03T07:19:20.363Z,21.81
2019-05-03T07:20:25.508Z,21.85
2019-05-03T07:21:28.603Z,21.78
2019-05-03T07:22:30.644Z,21.82
2019-05-03T07:23:35.024Z,21.78
2019-05-03T07:24:40.624Z,21.71
2019-05-03T07:25:41.530Z,21.70
2019-05-03T07:26:44.789Z,21.73
2019-05-03T07:27:47.235Z,21.67
2019-05-03T07:28:50.240Z,21.69
2019-05-03T07:29:55.583Z,21.67
2019-05-03T07:30:58.429Z,21.75
2019-05-03T07:32:00.667Z,21.72
2019-05-03T07:33:05.391Z,21.67
2019-05-03T07:34:07.990Z,21.73
2019-05-03T07:35:11.062Z,21.70
2019-05-03T07:36:15.241Z,21.71
2019-05-03T07:37:18.346Z,21.68
2019-05-03T07:38:21.196Z,21.72
2019-05-03T07:39:24.646Z,21.73
2019-05-03T07:40:27.798Z,21.73
2019-05-03T07:41:30.622Z,21.77
2019-05-03T07:42:34.690Z,21.74
2019-05-03T07:43:37.138Z,21.81
2019-05-03T07:44:39.458Z,21.94
2019-05-03T07:45:44.568Z,22.03
2019-05-03T07:46:46.703Z,22.07
2019-05-03T07:47:49.254Z,22.19
2019-05-03T07:48:51.410Z,22.13
2019-05-03T07:49:55.724Z,22.21
2019-05-03T07:50:58.265Z,22.19
2019-05-03T07:52:00.084Z,22.29
2019-05-03T07:53:04.617Z,22.23
2019-05-03T07:54:07.332Z,22.07
2019-05-03T07:55:10.582Z,22.12
2019-05-03T07:56:15.580Z,22.17
2019-05-03T07:57:35.648Z,22.12
2019-05-03T07:58:44.950Z,22.23
2019-05-03T07:59:47.442Z,22.32
2019-05-03T08:01:03.538Z,22.31
2019-05-03T08:01:57.626Z,22.35
2019-05-03T08:03:01.050Z,22.39
2019-05-03T08:04:05.431Z,22.43
2019-05-03T08:05:08.533Z,22.40
2019-05-03T08:06:10.861Z,22.41
2019-05-03T08:07:22.429Z,22.36
2019-05-03T08:08:19.527Z,22.42
2019-05-03T08:09:21.763Z,22.29
2019-05-03T08:10:25.633Z,22.34
2019-05-03T08:11:28.039Z,22.35
2019-05-03T08:12:30.532Z,22.42
2019-05-03T08:13:35.381Z,22.51
2019-05-03T08:14:37.637Z,22.64
2019-05-03T08:15:40.193Z,22.56
2019-05-03T08:16:42.836Z,22.51
2019-05-03T08:17:45.657Z,22.50
2019-05-03T08:18:48.358Z,22.46
2019-05-03T08:19:51.019Z,22.45
2019-05-03T08:20:55.663Z,22.40
2019-05-03T08:21:58.097Z,22.37
2019-05-03T08:23:00.799Z,22.38
2019-05-03T08:24:04.544Z,22.33
2019-05-03T08:25:06.940Z,22.34
2019-05-03T08:26:09.339Z,22.35
2019-05-03T08:27:11.417Z,22.37
2019-05-03T08:28:14.579Z,22.44
2019-05-03T08:29:19.646Z,22.39
2019-05-03T08:30:30.994Z,22.30
2019-05-03T08:31:48.676Z,22.25
2019-05-03T08:33:05.532Z,22.16
2019-05-03T08:34:16.103Z,22.02
2019-05-03T08:35:24.372Z,22.02
2019-05-03T08:36:27.249Z,21.88
2019-05-03T08:37:32.349Z,21.87
2019-05-03T08:38:35.719Z,21.85
2019-05-03T08:39:38.267Z,21.81
2019-05-03T08:40:43.104Z,21.75
2019-05-03T08:41:47.449Z,21.68
2019-05-03T08:42:50.686Z,21.70
2019-05-03T08:43:54.882Z,21.57
2019-05-03T08:44:57.215Z,21.64
2019-05-03T08:45:59.942Z,21.68
2019-05-03T08:47:05.243Z,21.64
2019-05-03T08:48:08.186Z,21.62
2019-05-03T08:49:14.955Z,21.63
2019-05-03T08:50:21.487Z,21.61
2019-05-03T08:51:22.553Z,21.60
2019-05-03T08:52:28.444Z,21.56
2019-05-03T08:53:31.064Z,21.56
2019-05-03T08:54:34.693Z,21.54
2019-05-03T08:55:37.674Z,21.52
2019-05-03T08:56:40.008Z,21.45
2019-05-03T08:57:44.591Z,21.42
2019-05-03T08:58:46.958Z,21.43
2019-05-03T08:59:49.771Z,21.42
2019-05-03T09:00:54.537Z,21.41
2019-05-03T09:01:56.830Z,21.33
2019-05-03T09:02:59.190Z,21.28
2019-05-03T09:04:01.697Z,21.24
2019-05-03T09:05:06.114Z,21.16
2019-05-03T09:06:08.362Z,21.11
2019-05-03T09:07:12.138Z,21.09
2019-05-03T09:08:15.708Z,21.10
2019-05-03T09:09:29.710Z,21.02
2019-05-03T09:10:35.272Z,20.95
2019-05-03T09:11:37.670Z,20.98
2019-05-03T09:12:59.015Z,20.98
2019-05-03T09:14:05.257Z,20.94
2019-05-03T09:15:09.476Z,20.83
2019-05-03T09:16:12.181Z,20.75
2019-05-03T09:17:15.585Z,20.77
2019-05-03T09:18:18.283Z,20.80
2019-05-03T09:19:20.021Z,20.72
2019-05-03T09:20:24.984Z,20.75
2019-05-03T09:21:27.520Z,20.74
2019-05-03T09:22:30.173Z,20.74
2019-05-03T09:23:32.687Z,20.82
2019-05-03T09:24:36.525Z,20.81
2019-05-03T09:25:38.987Z,20.86
2019-05-03T09:26:42.087Z,20.84
2019-05-03T09:27:44.632Z,20.80
2019-05-03T09:28:47.124Z,20.76
2019-05-03T09:29:49.488Z,20.81
2019-05-03T09:30:51.938Z,20.89
2019-05-03T09:31:55.478Z,20.88
2019-05-03T09:32:58.262Z,20.92
2019-05-03T09:34:00.536Z,20.80
2019-05-03T09:35:05.609Z,20.83
2019-05-03T09:36:08.120Z,20.81
2019-05-03T09:37:12.100Z,20.94
2019-05-03T09:38:15.741Z,21.00
2019-05-03T09:39:18.062Z,20.91
2019-05-03T09:40:21.832Z,21.02
2019-05-03T09:41:25.550Z,20.98
2019-05-03T09:42:28.520Z,21.08
2019-05-03T09:43:32.260Z,21.00
2019-05-03T09:44:35.919Z,21.06
2019-05-03T09:45:38.558Z,21.10
2019-05-03T09:46:41.490Z,20.99
2019-05-03T09:47:44.824Z,20.94
2019-05-03T09:48:47.762Z,20.90
2019-05-03T09:49:50.148Z,20.91
2019-05-03T09:50:52.683Z,20.90
2019-05-03T09:51:55.078Z,20.91
2019-05-03T09:52:59.844Z,20.88
2019-05-03T09:54:05.336Z,20.90
2019-05-03T09:55:14.525Z,20.93
2019-05-03T09:56:19.210Z,21.00
2019-05-03T09:57:24.801Z,20.95
2019-05-03T09:58:27.542Z,20.96
2019-05-03T09:59:29.892Z,20.90
2019-05-03T10:00:31.664Z,20.91
2019-05-03T10:01:34.694Z,21.03
2019-05-03T10:02:37.196Z,20.96
2019-05-03T10:03:38.941Z,20.98
2019-05-03T10:04:41.923Z,21.04
2019-05-03T10:05:45.814Z,20.90
2019-05-03T10:06:48.001Z,20.81
2019-05-03T10:07:50.741Z,20.80
2019-05-03T10:08:53.595Z,20.81
2019-05-03T10:09:57.600Z,20.83
2019-05-03T10:11:09.520Z,20.77
2019-05-03T10:12:19.890Z,20.82
2019-05-03T10:13:23.671Z,20.84
2019-05-03T10:14:27.776Z,20.76
2019-05-03T10:15:40.772Z,20.70
2019-05-03T10:16:54.781Z,20.69
2019-05-03T10:17:58.493Z,20.73
2019-05-03T10:19:00.681Z,20.72
2019-05-03T10:20:06.678Z,20.69
2019-05-03T10:21:09.693Z,20.63
2019-05-03T10:22:15.030Z,20.65
2019-05-03T10:23:25.409Z,20.64
2019-05-03T10:24:27.969Z,20.55
2019-05-03T10:25:30.483Z,20.55
2019-05-03T10:26:35.587Z,20.40
2019-05-03T10:27:45.746Z,20.45
2019-05-03T10:28:50.148Z,20.47
2019-05-03T10:29:55.935Z,20.42
2019-05-03T10:31:05.575Z,20.45
2019-05-03T10:32:16.158Z,20.50
2019-05-03T10:33:20.576Z,20.51
2019-05-03T10:34:24.821Z,20.47
2019-05-03T10:35:27.574Z,20.45
2019-05-03T10:36:30.126Z,20.44
2019-05-03T10:37:35.690Z,20.55
2019-05-03T10:38:37.884Z,20.56
2019-05-03T10:39:40.453Z,20.56
2019-05-03T10:40:45.706Z,20.63
2019-05-03T10:41:48.763Z,20.59
2019-05-03T10:42:51.259Z,20.60
2019-05-03T10:43:55.616Z,20.47
2019-05-03T10:44:58.366Z,20.54
2019-05-03T10:46:00.416Z,20.46
2019-05-03T10:47:05.383Z,20.37
2019-05-03T10:48:08.838Z,20.39
2019-05-03T10:49:11.536Z,20.30
2019-05-03T10:50:15.626Z,20.27
2019-05-03T10:51:19.631Z,20.30
2019-05-03T10:52:26.226Z,20.22
2019-05-03T10:53:31.707Z,20.20
2019-05-03T10:54:35.790Z,20.26
2019-05-03T10:55:38.218Z,20.34
2019-05-03T10:56:57.795Z,20.34
2019-05-03T10:58:16.188Z,20.40
2019-05-03T10:59:20.343Z,20.26
2019-05-03T11:00:42.412Z,20.25
2019-05-03T11:01:47.079Z,20.24
2019-05-03T11:02:51.320Z,20.21
2019-05-03T11:03:54.577Z,20.14
2019-05-03T11:04:57.937Z,20.10
2019-05-03T11:06:00.288Z,20.02
2019-05-03T11:07:02.715Z,20.03
2019-05-03T11:08:05.701Z,20.01
2019-05-03T11:09:09.881Z,20.01
2019-05-03T11:10:14.705Z,20.10
2019-05-03T11:11:18.348Z,20.07
2019-05-03T11:12:21.575Z,20.05
2019-05-03T11:13:26.296Z,20.04
2019-05-03T11:14:28.619Z,20.11
2019-05-03T11:15:32.353Z,20.07
2019-05-03T11:16:35.294Z,20.06
2019-05-03T11:17:39.737Z,20.06
2019-05-03T11:18:42.083Z,20.05
2019-05-03T11:19:45.452Z,20.00
2019-05-03T11:20:48.015Z,19.97
2019-05-03T11:21:50.077Z,19.99
2019-05-03T11:22:54.720Z,20.01
2019-05-03T11:23:58.767Z,20.01
2019-05-03T11:25:01.331Z,19.96
2019-05-03T11:26:05.140Z,19.81
2019-05-03T11:27:10.433Z,19.88
2019-05-03T11:28:17.560Z,19.94
2019-05-03T11:29:20.892Z,19.91
2019-05-03T11:30:25.543Z,19.96
2019-05-03T11:31:48.334Z,19.83
2019-05-03T11:32:55.618Z,19.88
2019-05-03T11:34:01.063Z,19.77
2019-05-03T11:35:11.924Z,19.72
2019-05-03T11:36:16.634Z,19.72
2019-05-03T11:37:40.706Z,19.67
2019-05-03T11:38:45.534Z,19.62
2019-05-03T11:39:50.732Z,19.58
2019-05-03T11:40:55.821Z,19.64
2019-05-03T11:41:59.743Z,19.63
2019-05-03T11:43:04.522Z,19.62
2019-05-03T11:44:25.483Z,19.72
2019-05-03T11:45:29.673Z,19.72
2019-05-03T11:46:32.958Z,19.79
2019-05-03T11:47:35.424Z,19.80
2019-05-03T11:48:38.062Z,19.81
2019-05-03T11:49:40.505Z,19.75
2019-05-03T11:50:42.797Z,19.81
2019-05-03T11:51:45.623Z,19.85
2019-05-03T11:52:48.199Z,19.91
2019-05-03T11:53:50.703Z,19.77
2019-05-03T11:54:55.125Z,19.75
2019-05-03T11:55:57.264Z,19.77
2019-05-03T11:57:02.002Z,19.83
2019-05-03T11:58:06.867Z,19.91
2019-05-03T11:59:09.104Z,19.95
2019-05-03T12:00:15.689Z,19.94
2019-05-03T12:01:20.448Z,20.01
2019-05-03T12:02:26.672Z,19.95
2019-05-03T12:03:31.230Z,20.01
2019-05-03T12:04:35.386Z,20.03
2019-05-03T12:05:37.801Z,20.00
2019-05-03T12:06:40.094Z,20.09
2019-05-03T12:07:45.305Z,20.12
2019-05-03T12:08:48.581Z,20.16
2019-05-03T12:09:51.429Z,20.19
2019-05-03T12:11:00.627Z,20.16
2019-05-03T12:11:58.606Z,20.22
2019-05-03T12:13:08.972Z,20.04
2019-05-03T12:14:15.214Z,20.01
2019-05-03T12:15:17.804Z,19.92
2019-05-03T12:16:32.834Z,19.84
2019-05-03T12:17:50.450Z,19.84
2019-05-03T12:18:50.231Z,19.76
2019-05-03T12:19:47.221Z,19.75
2019-05-03T12:20:51.282Z,19.68
2019-05-03T12:21:56.623Z,19.69
2019-05-03T12:23:00.363Z,19.68
2019-05-03T12:24:06.386Z,19.67
2019-05-03T12:25:11.414Z,19.70
2019-05-03T12:26:17.276Z,19.67
2019-05-03T12:27:20.886Z,19.74
2019-05-03T12:28:25.847Z,19.75
2019-05-03T12:29:28.316Z,19.74
2019-05-03T12:30:31.733Z,19.69
2019-05-03T12:31:40.230Z,19.74
2019-05-03T12:32:38.507Z,19.78
2019-05-03T12:33:40.208Z,19.81
2019-05-03T12:34:43.327Z,19.83
2019-05-03T12:35:46.492Z,19.84
2019-05-03T12:36:51.155Z,19.88
2019-05-03T12:37:55.337Z,19.85
2019-05-03T12:38:57.284Z,19.81
2019-05-03T12:39:59.360Z,19.91
2019-05-03T12:41:05.534Z,19.99
2019-05-03T12:43:20.556Z,20.11
2019-05-03T12:44:25.260Z,20.11
2019-05-03T12:45:27.650Z,20.12
2019-05-03T12:46:31.708Z,20.08
2019-05-03T12:47:34.658Z,20.04
2019-05-03T12:48:37.101Z,20.01
2019-05-03T12:49:39.317Z,19.93
2019-05-03T12:50:42.224Z,19.89
2019-05-03T12:51:45.811Z,19.82
2019-05-03T12:52:50.389Z,19.76
2019-05-03T12:53:52.353Z,19.81
2019-05-03T12:54:55.198Z,19.83
2019-05-03T12:55:57.930Z,19.86
2019-05-03T12:57:00.569Z,19.91
2019-05-03T12:58:02.744Z,19.94
2019-05-03T12:59:07.180Z,19.96
2019-05-03T13:00:25.081Z,19.88
2019-05-03T13:01:41.828Z,19.90
2019-05-03T13:02:42.813Z,19.94
2019-05-03T13:03:56.002Z,19.94
2019-05-03T13:04:58.513Z,19.99
2019-05-03T13:06:06.925Z,20.06
2019-05-03T13:07:22.634Z,20.08
2019-05-03T13:08:35.227Z,20.09
2019-05-03T13:09:37.973Z,20.11
2019-05-03T13:10:42.269Z,20.12
2019-05-03T13:11:54.792Z,20.14
2019-05-03T13:12:53.309Z,20.09
2019-05-03T13:13:56.373Z,19.94
2019-05-03T13:14:58.963Z,19.96
2019-05-03T13:16:04.512Z,19.93
2019-05-03T13:17:06.891Z,19.94
2019-05-03T13:18:09.906Z,20.07
2019-05-03T13:19:12.349Z,20.12
2019-05-03T13:20:15.423Z,20.14
2019-05-03T13:21:17.877Z,20.20
2019-05-03T13:22:21.938Z,20.16
2019-05-03T13:23:25.408Z,20.14
2019-05-03T13:24:30.286Z,20.14
2019-05-03T13:25:32.667Z,20.08
2019-05-03T13:26:35.211Z,20.15
2019-05-03T13:27:37.625Z,20.14
2019-05-03T13:28:40.340Z,20.16
2019-05-03T13:29:42.673Z,20.12
2019-05-03T13:30:45.269Z,20.12
2019-05-03T13:31:58.424Z,20.09
2019-05-03T13:32:52.466Z,20.12
2019-05-03T13:33:56.308Z,20.11
2019-05-03T13:34:58.910Z,20.14
2019-05-03T13:36:01.687Z,20.10
2019-05-03T13:37:03.892Z,20.11
2019-05-03T13:38:06.427Z,20.11
2019-05-03T13:39:13.303Z,20.18
2019-05-03T13:40:17.411Z,20.14
2019-05-03T13:41:19.682Z,20.22
2019-05-03T13:42:22.009Z,20.28
2019-05-03T13:43:23.763Z,20.29
2019-05-03T13:44:26.632Z,20.32
2019-05-03T13:45:29.035Z,20.43
2019-05-03T13:46:31.371Z,20.51
2019-05-03T13:47:35.840Z,20.53
2019-05-03T13:48:45.368Z,20.66
2019-05-03T13:49:41.609Z,20.59
2019-05-03T13:50:45.814Z,20.59
2019-05-03T13:51:48.298Z,20.55
2019-05-03T13:52:50.734Z,20.67
2019-05-03T13:53:54.906Z,20.68
2019-05-03T13:54:56.758Z,20.72
2019-05-03T13:56:00.019Z,20.73
2019-05-03T13:57:05.129Z,20.71